createdAt,value
2022-07-28T00:01:12.420Z,19.54
2022-07-28T00:03:40.309Z,19.19
2022-07-28T00:06:06.952Z,19.63
2022-07-28T00:08:33.581Z,19.59
2022-07-28T00:11:00.252Z,19.51
2022-07-28T00:13:26.944Z,19.60
2022-07-28T00:15:53.612Z,19.61
2022-07-28T00:18:20.300Z,19.61
2022-07-28T00:20:46.972Z,19.56
2022-07-28T00:23:13.595Z,19.42
2022-07-28T00:25:40.226Z,19.43
2022-07-28T00:28:07.220Z,19.33
2022-07-28T00:30:33.865Z,19.07
2022-07-28T00:33:00.655Z,18.17
2022-07-28T00:35:30.961Z,19.18
2022-07-28T00:37:59.578Z,19.22
2022-07-28T00:40:46.981Z,19.16
2022-07-28T00:43:14.216Z,19.32
2022-07-28T00:45:41.005Z,19.30
2022-07-28T00:48:07.675Z,19.09
2022-07-28T00:50:34.419Z,19.19
2022-07-28T00:53:01.247Z,19.24
2022-07-28T00:55:27.992Z,19.21
2022-07-28T00:57:54.748Z,19.19
2022-07-28T01:00:21.584Z,19.15
2022-07-28T01:02:48.642Z,19.20
2022-07-28T01:05:15.964Z,19.11
2022-07-28T01:08:03.661Z,19.16
2022-07-28T01:10:56.150Z,19.18
2022-07-28T01:13:45.236Z,19.04
2022-07-28T01:16:12.310Z,19.06
2022-07-28T01:18:48.025Z,18.96
2022-07-28T01:21:19.963Z,18.95
2022-07-28T01:23:58.755Z,19.02
2022-07-28T01:26:38.743Z,19.11
2022-07-28T01:29:30.000Z,19.20
2022-07-28T01:32:03.802Z,19.15
2022-07-28T01:34:49.029Z,19.18
2022-07-28T01:37:19.860Z,19.12
2022-07-28T01:39:47.472Z,19.07
2022-07-28T01:42:15.669Z,18.86
2022-07-28T01:44:47.555Z,18.89
2022-07-28T01:47:15.345Z,18.84
2022-07-28T01:49:45.071Z,18.91
2022-07-28T01:52:11.727Z,18.88
2022-07-28T01:54:41.929Z,18.78
2022-07-28T01:57:14.428Z,18.89
2022-07-28T01:59:42.755Z,18.76
2022-07-28T02:02:11.156Z,18.77
2022-07-28T02:04:40.555Z,18.56
2022-07-28T02:07:10.311Z,18.55
2022-07-28T02:09:38.080Z,18.78
2022-07-28T02:12:05.980Z,18.63
2022-07-28T02:14:36.285Z,18.59
2022-07-28T02:17:08.415Z,18.39
2022-07-28T02:19:36.936Z,18.59
2022-07-28T02:22:06.194Z,18.40
2022-07-28T02:24:34.854Z,18.55
2022-07-28T02:27:10.036Z,18.53
2022-07-28T02:29:51.282Z,18.53
2022-07-28T02:32:52.369Z,18.57
2022-07-28T02:35:40.496Z,18.53
2022-07-28T02:38:17.724Z,18.47
2022-07-28T02:40:46.454Z,18.55
2022-07-28T02:43:17.960Z,18.46
2022-07-28T02:45:51.730Z,18.52
2022-07-28T02:48:23.349Z,18.41
2022-07-28T02:50:52.982Z,18.39
2022-07-28T02:53:22.389Z,18.38
2022-07-28T02:55:50.231Z,18.28
2022-07-28T02:58:22.405Z,18.37
2022-07-28T03:00:50.680Z,18.38
2022-07-28T03:03:18.504Z,18.31
2022-07-28T03:05:46.236Z,18.41
2022-07-28T03:08:14.116Z,18.24
2022-07-28T03:10:41.835Z,18.39
2022-07-28T03:13:08.702Z,18.27
2022-07-28T03:15:36.953Z,18.22
2022-07-28T03:18:05.540Z,18.12
2022-07-28T03:20:32.502Z,18.19
2022-07-28T03:22:59.472Z,18.20
2022-07-28T03:25:41.301Z,18.15
2022-07-28T03:28:13.031Z,18.03
2022-07-28T03:30:42.933Z,18.03
2022-07-28T03:33:09.955Z,17.99
2022-07-28T03:35:39.754Z,17.90
2022-07-28T03:38:14.524Z,17.84
2022-07-28T03:40:46.553Z,17.95
2022-07-28T03:43:16.463Z,17.86
2022-07-28T03:45:46.454Z,17.90
2022-07-28T03:48:14.890Z,17.97
2022-07-28T03:50:41.731Z,17.87
2022-07-28T03:53:35.173Z,17.98
2022-07-28T03:56:03.299Z,17.99
2022-07-28T03:58:30.776Z,17.85
2022-07-28T04:00:58.218Z,17.93
2022-07-28T04:03:42.637Z,17.92
2022-07-28T04:06:10.840Z,17.90
2022-07-28T04:08:37.639Z,17.69
2022-07-28T04:11:04.272Z,17.79
2022-07-28T04:13:36.489Z,17.69
2022-07-28T04:16:03.520Z,17.76
2022-07-28T04:18:30.214Z,17.60
2022-07-28T04:20:56.923Z,17.88
2022-07-28T04:23:24.187Z,17.90
2022-07-28T04:25:50.908Z,17.91
2022-07-28T04:28:17.618Z,17.94
2022-07-28T04:30:44.883Z,17.97
2022-07-28T04:33:13.860Z,17.90
2022-07-28T04:35:42.857Z,17.87
2022-07-28T04:38:09.537Z,17.88
2022-07-28T04:40:36.225Z,18.14
2022-07-28T04:43:03.881Z,18.24
2022-07-28T04:45:30.834Z,18.19
2022-07-28T04:47:57.524Z,18.27
2022-07-28T04:50:24.250Z,17.98
2022-07-28T04:52:58.697Z,18.25
2022-07-28T04:55:26.065Z,18.10
2022-07-28T04:57:52.738Z,17.94
2022-07-28T05:00:19.973Z,18.10
2022-07-28T05:02:50.038Z,18.13
2022-07-28T05:05:16.942Z,18.26
2022-07-28T05:07:44.185Z,18.20
2022-07-28T05:10:12.391Z,18.34
2022-07-28T05:12:39.466Z,18.21
2022-07-28T05:15:07.417Z,18.14
2022-07-28T05:17:34.350Z,18.19
2022-07-28T05:20:01.038Z,17.95
2022-07-28T05:22:47.647Z,18.04
2022-07-28T05:25:18.700Z,18.44
2022-07-28T05:27:46.542Z,18.49
2022-07-28T05:30:14.322Z,18.47
2022-07-28T05:32:41.673Z,18.63
2022-07-28T05:35:12.399Z,18.39
2022-07-28T05:37:39.055Z,18.46
2022-07-28T05:40:11.837Z,18.67
2022-07-28T05:42:39.921Z,18.97
2022-07-28T05:45:15.013Z,18.96
2022-07-28T05:47:46.348Z,19.07
2022-07-28T05:50:14.990Z,19.09
2022-07-28T05:52:41.824Z,19.13
2022-07-28T05:55:09.806Z,19.10
2022-07-28T05:57:37.569Z,18.90
2022-07-28T06:00:09.514Z,19.08
2022-07-28T06:02:40.230Z,19.03
2022-07-28T06:05:07.815Z,19.28
2022-07-28T06:07:43.259Z,19.44
2022-07-28T06:10:16.765Z,19.43
2022-07-28T06:12:46.795Z,19.59
2022-07-28T06:15:15.305Z,19.80
2022-07-28T06:17:42.345Z,19.98
2022-07-28T06:20:10.244Z,20.07
2022-07-28T06:22:47.773Z,20.39
2022-07-28T06:25:16.773Z,20.56
2022-07-28T06:27:45.710Z,20.66
2022-07-28T06:30:12.911Z,20.63
2022-07-28T06:32:39.748Z,20.42
2022-07-28T06:35:07.044Z,20.48
2022-07-28T06:37:33.754Z,20.48
2022-07-28T06:40:00.518Z,20.48
2022-07-28T06:42:27.480Z,20.58
2022-07-28T06:45:01.291Z,20.63
2022-07-28T06:47:27.949Z,20.61
2022-07-28T06:49:54.591Z,20.51
2022-07-28T06:52:22.072Z,20.64
2022-07-28T06:54:51.611Z,20.90
2022-07-28T06:57:21.118Z,20.94
2022-07-28T06:59:49.567Z,21.20
2022-07-28T07:02:17.628Z,21.32
2022-07-28T07:04:45.442Z,21.40
2022-07-28T07:07:17.122Z,21.55
2022-07-28T07:09:44.418Z,21.92
2022-07-28T07:12:11.127Z,21.97
2022-07-28T07:14:37.886Z,22.18
2022-07-28T07:17:04.580Z,22.29
2022-07-28T07:19:31.318Z,22.57
2022-07-28T07:21:58.004Z,22.83
2022-07-28T07:24:24.762Z,22.73
2022-07-28T07:26:51.780Z,22.81
2022-07-28T07:29:19.801Z,22.64
2022-07-28T07:31:46.627Z,22.67
2022-07-28T07:34:19.507Z,23.31
2022-07-28T07:36:46.305Z,23.31
2022-07-28T07:39:13.458Z,23.65
2022-07-28T07:41:40.158Z,23.66
2022-07-28T07:44:07.210Z,23.94
2022-07-28T07:46:36.263Z,24.06
2022-07-28T07:49:03.084Z,23.68
2022-07-28T07:51:29.780Z,23.59
2022-07-28T07:53:56.525Z,23.81
2022-07-28T07:56:23.217Z,24.25
2022-07-28T07:58:56.456Z,24.08
2022-07-28T08:01:23.616Z,24.09
2022-07-28T08:03:50.680Z,24.39
2022-07-28T08:06:17.876Z,24.54
2022-07-28T08:08:59.444Z,25.09
2022-07-28T08:11:26.210Z,25.22
2022-07-28T08:13:52.966Z,25.34
2022-07-28T08:16:19.918Z,25.24
2022-07-28T08:18:46.651Z,25.59
2022-07-28T08:21:14.617Z,25.80
2022-07-28T08:23:41.467Z,25.81
2022-07-28T08:26:08.256Z,26.29
2022-07-28T08:28:35.174Z,26.18
2022-07-28T08:31:02.103Z,26.11
2022-07-28T08:33:28.914Z,25.95
2022-07-28T08:35:55.609Z,25.60
2022-07-28T08:38:22.320Z,25.45
2022-07-28T08:40:50.155Z,25.58
2022-07-28T08:43:33.548Z,26.17
2022-07-28T08:46:02.241Z,26.61
2022-07-28T08:48:36.955Z,27.21
2022-07-28T08:51:09.387Z,27.57
2022-07-28T08:53:38.142Z,27.23
2022-07-28T08:56:07.522Z,26.79
2022-07-28T08:58:35.984Z,27.03
2022-07-28T09:01:03.792Z,27.22
2022-07-28T09:03:30.612Z,27.60
2022-07-28T09:05:57.923Z,27.87
2022-07-28T09:08:25.347Z,28.14
2022-07-28T09:10:52.730Z,28.20
2022-07-28T09:13:19.705Z,28.65
2022-07-28T09:15:46.880Z,28.59
2022-07-28T09:18:14.980Z,28.37
2022-07-28T09:20:44.027Z,28.60
2022-07-28T09:23:41.938Z,28.86
2022-07-28T09:26:12.365Z,29.01
2022-07-28T09:28:51.619Z,28.53
2022-07-28T09:31:19.567Z,28.46
2022-07-28T09:34:00.998Z,28.63
2022-07-28T09:36:30.017Z,29.04
2022-07-28T09:38:56.912Z,29.51
2022-07-28T09:41:24.225Z,29.80
2022-07-28T09:43:55.247Z,30.16
2022-07-28T09:46:25.678Z,30.18
2022-07-28T09:48:58.110Z,30.35
2022-07-28T09:51:28.073Z,30.03
2022-07-28T09:54:13.295Z,30.12
2022-07-28T09:56:45.665Z,30.46
2022-07-28T09:59:15.094Z,30.47
2022-07-28T10:01:54.020Z,30.44
2022-07-28T10:04:41.276Z,29.99
2022-07-28T10:07:11.335Z,30.47
2022-07-28T10:09:39.169Z,29.99
2022-07-28T10:12:17.886Z,30.39
2022-07-28T10:14:46.345Z,29.97
2022-07-28T10:17:27.778Z,29.94
2022-07-28T10:19:58.338Z,30.05
2022-07-28T10:22:32.963Z,30.05
2022-07-28T10:25:02.528Z,29.51
2022-07-28T10:27:30.317Z,29.62
2022-07-28T10:30:00.143Z,29.79
2022-07-28T10:32:29.615Z,30.33
2022-07-28T10:35:02.722Z,30.74
2022-07-28T10:37:32.068Z,31.33
2022-07-28T10:40:09.805Z,31.32
2022-07-28T10:42:40.215Z,30.88
2022-07-28T10:45:10.060Z,31.22
2022-07-28T10:47:36.820Z,30.89
2022-07-28T10:50:04.289Z,31.52
2022-07-28T10:52:51.315Z,31.79
2022-07-28T10:55:46.455Z,31.68
2022-07-28T10:58:24.999Z,31.24
2022-07-28T11:01:02.170Z,31.41
2022-07-28T11:03:40.449Z,31.95
2022-07-28T11:06:36.970Z,32.61
2022-07-28T11:09:15.770Z,32.73
2022-07-28T11:11:57.828Z,32.32
2022-07-28T11:14:37.598Z,32.39
2022-07-28T11:17:04.659Z,31.75
2022-07-28T11:19:55.726Z,31.84
2022-07-28T11:22:32.858Z,31.45
2022-07-28T11:25:18.486Z,31.44
2022-07-28T11:27:49.709Z,31.32
2022-07-28T11:30:16.362Z,31.15
2022-07-28T11:32:53.394Z,31.33
2022-07-28T11:35:24.411Z,31.13
2022-07-28T11:38:03.182Z,30.47
2022-07-28T11:40:38.239Z,30.17
2022-07-28T11:43:30.636Z,30.10
2022-07-28T11:46:07.642Z,30.43
2022-07-28T11:48:42.871Z,30.56
2022-07-28T11:51:15.918Z,31.42
2022-07-28T11:53:50.740Z,31.72
2022-07-28T11:56:36.075Z,31.75
2022-07-28T11:59:04.723Z,32.33
2022-07-28T12:01:32.531Z,32.04
2022-07-28T12:04:12.256Z,32.55
2022-07-28T12:06:43.079Z,32.40
2022-07-28T12:09:11.301Z,32.49
2022-07-28T12:11:42.314Z,33.01
2022-07-28T12:14:18.485Z,32.52
2022-07-28T12:16:49.648Z,31.96
2022-07-28T12:19:19.007Z,31.46
2022-07-28T12:21:50.495Z,31.26
2022-07-28T12:24:20.268Z,31.46
2022-07-28T12:26:49.983Z,31.73
2022-07-28T12:29:19.870Z,32.46
2022-07-28T12:32:02.693Z,32.58
2022-07-28T12:34:31.302Z,32.58
2022-07-28T12:37:01.930Z,33.00
2022-07-28T12:39:30.873Z,32.43
2022-07-28T12:42:05.702Z,32.53
2022-07-28T12:44:40.440Z,31.76
2022-07-28T12:47:10.805Z,31.98
2022-07-28T12:49:40.597Z,32.33
2022-07-28T12:52:21.609Z,32.08
2022-07-28T12:54:53.357Z,32.01
2022-07-28T12:57:50.509Z,31.87
2022-07-28T13:00:20.613Z,31.82
2022-07-28T13:02:48.950Z,31.68
2022-07-28T13:05:27.500Z,31.92
2022-07-28T13:08:02.460Z,31.61
2022-07-28T13:10:30.223Z,31.57
2022-07-28T13:13:06.431Z,31.46
2022-07-28T13:15:36.172Z,31.36
2022-07-28T13:18:04.885Z,30.97
2022-07-28T13:20:36.588Z,31.23
2022-07-28T13:23:03.237Z,31.20
2022-07-28T13:25:30.029Z,31.51
2022-07-28T13:27:56.702Z,32.02
2022-07-28T13:30:23.878Z,32.69
2022-07-28T13:32:50.892Z,32.72
2022-07-28T13:35:19.099Z,32.46
2022-07-28T13:37:48.378Z,32.80
2022-07-28T13:40:15.171Z,33.00
2022-07-28T13:42:52.982Z,32.63
2022-07-28T13:45:24.366Z,32.43
2022-07-28T13:47:52.202Z,32.17
2022-07-28T13:50:20.590Z,32.19
2022-07-28T13:52:48.361Z,32.19
2022-07-28T13:55:15.972Z,32.69
2022-07-28T13:57:45.919Z,32.65
2022-07-28T14:00:18.110Z,32.48
2022-07-28T14:02:48.628Z,32.07
2022-07-28T14:05:15.956Z,31.86
2022-07-28T14:07:48.030Z,31.74
2022-07-28T14:10:17.787Z,31.67
2022-07-28T14:12:44.935Z,31.29
2022-07-28T14:15:12.946Z,30.74
2022-07-28T14:17:45.700Z,30.68
2022-07-28T14:20:16.363Z,30.57
2022-07-28T14:22:44.617Z,30.65
2022-07-28T14:25:19.786Z,30.74
2022-07-28T14:27:49.028Z,30.75
2022-07-28T14:30:15.688Z,30.91
2022-07-28T14:32:42.486Z,31.02
2022-07-28T14:35:09.444Z,30.39
2022-07-28T14:38:11.294Z,31.10
2022-07-28T14:40:23.722Z,31.35
2022-07-28T14:42:50.365Z,31.48
2022-07-28T14:45:17.067Z,31.46
2022-07-28T14:47:44.967Z,31.24
2022-07-28T14:50:12.601Z,31.41
2022-07-28T14:52:39.328Z,31.65
2022-07-28T14:55:06.617Z,31.43
2022-07-28T14:57:50.117Z,30.97
2022-07-28T15:00:21.599Z,30.85
2022-07-28T15:02:48.451Z,30.88
2022-07-28T15:05:15.236Z,30.97
2022-07-28T15:07:42.396Z,30.92
2022-07-28T15:10:10.462Z,31.04
2022-07-28T15:12:37.712Z,31.00
2022-07-28T15:15:05.328Z,30.94
2022-07-28T15:17:32.065Z,30.93
2022-07-28T15:19:59.909Z,31.09
2022-07-28T15:22:26.778Z,31.27
2022-07-28T15:24:53.542Z,31.27
2022-07-28T15:27:20.322Z,31.55
2022-07-28T15:29:48.028Z,31.64
2022-07-28T15:32:19.597Z,31.61
2022-07-28T15:34:53.860Z,31.33
2022-07-28T15:37:20.566Z,31.42
2022-07-28T15:39:47.651Z,31.29
2022-07-28T15:42:14.846Z,31.57
2022-07-28T15:44:41.623Z,31.39
2022-07-28T15:47:08.415Z,31.63
2022-07-28T15:49:36.145Z,31.41
2022-07-28T15:52:04.334Z,31.23
2022-07-28T15:54:31.198Z,31.24
2022-07-28T15:56:57.980Z,31.37
2022-07-28T15:59:25.421Z,31.45
2022-07-28T16:01:52.192Z,31.33
2022-07-28T16:04:19.240Z,31.32
2022-07-28T16:07:04.694Z,31.58
2022-07-28T16:09:46.448Z,33.40
2022-07-28T16:12:14.609Z,34.98
2022-07-28T16:14:42.345Z,35.77
2022-07-28T16:17:09.860Z,36.30
2022-07-28T16:19:48.401Z,34.51
2022-07-28T16:22:17.169Z,32.81
2022-07-28T16:24:44.044Z,31.65
2022-07-28T16:27:10.798Z,30.98
2022-07-28T16:29:38.035Z,30.59
2022-07-28T16:32:05.400Z,30.60
2022-07-28T16:34:32.360Z,30.53
2022-07-28T16:36:59.016Z,30.35
2022-07-28T16:39:25.804Z,30.38
2022-07-28T16:41:53.123Z,30.36
2022-07-28T16:44:20.423Z,30.98
2022-07-28T16:46:47.557Z,30.81
2022-07-28T16:49:15.956Z,30.70
2022-07-28T16:51:42.853Z,30.51
2022-07-28T16:54:09.635Z,30.46
2022-07-28T16:56:36.367Z,31.03
2022-07-28T16:59:03.493Z,32.37
2022-07-28T17:01:30.185Z,33.04
2022-07-28T17:03:56.892Z,33.50
2022-07-28T17:06:23.544Z,33.83
2022-07-28T17:08:50.350Z,34.00
2022-07-28T17:11:17.300Z,34.10
2022-07-28T17:13:45.578Z,34.32
2022-07-28T17:16:13.411Z,33.93
2022-07-28T17:18:42.494Z,32.77
2022-07-28T17:21:09.165Z,31.92
2022-07-28T17:23:39.299Z,31.40
2022-07-28T17:28:54.032Z,31.27
2022-07-28T17:31:21.163Z,31.89
2022-07-28T17:33:47.930Z,31.68
2022-07-28T17:36:17.620Z,31.17
2022-07-28T17:38:44.401Z,30.58
2022-07-28T17:41:11.185Z,31.62
2022-07-28T17:43:42.303Z,33.19
2022-07-28T17:46:11.939Z,33.65
2022-07-28T17:48:39.856Z,33.77
2022-07-28T17:51:06.730Z,32.79
2022-07-28T17:53:33.678Z,32.98
2022-07-28T17:56:06.998Z,32.31
2022-07-28T17:58:36.218Z,30.89
2022-07-28T18:01:10.629Z,30.23
2022-07-28T18:03:59.189Z,29.49
2022-07-28T18:06:40.339Z,28.94
2022-07-28T18:09:13.412Z,28.66
2022-07-28T18:11:56.835Z,28.54
2022-07-28T18:14:27.135Z,28.31
2022-07-28T18:16:54.889Z,28.10
2022-07-28T18:19:23.361Z,28.16
2022-07-28T18:22:02.712Z,27.99
2022-07-28T18:24:29.422Z,28.11
2022-07-28T18:26:56.088Z,27.96
2022-07-28T18:29:23.032Z,27.91
2022-07-28T18:31:57.749Z,27.82
2022-07-28T18:34:26.663Z,27.61
2022-07-28T18:36:56.709Z,27.53
2022-07-28T18:39:30.939Z,27.37
2022-07-28T18:41:57.748Z,27.50
2022-07-28T18:44:24.616Z,27.42
2022-07-28T18:46:51.662Z,27.26
2022-07-28T18:49:19.936Z,27.11
2022-07-28T18:51:49.346Z,26.96
2022-07-28T18:54:21.538Z,27.15
2022-07-28T18:57:11.955Z,26.73
2022-07-28T18:59:43.866Z,26.90
2022-07-28T19:02:13.922Z,26.94
2022-07-28T19:04:42.064Z,26.59
2022-07-28T19:07:08.960Z,26.34
2022-07-28T19:09:38.904Z,26.77
2022-07-28T19:12:09.368Z,26.69
2022-07-28T19:14:36.322Z,26.52
2022-07-28T19:17:05.544Z,26.54
2022-07-28T19:19:38.708Z,26.43
2022-07-28T19:22:07.337Z,26.32
2022-07-28T19:24:35.190Z,26.16
2022-07-28T19:27:05.181Z,26.06
2022-07-28T19:29:32.606Z,26.04
2022-07-28T19:32:01.624Z,25.95
2022-07-28T19:34:28.409Z,25.51
2022-07-28T19:36:56.231Z,25.80
2022-07-28T19:39:23.506Z,25.80
2022-07-28T19:41:50.296Z,25.61
2022-07-28T19:44:17.522Z,25.64
2022-07-28T19:46:45.385Z,25.46
2022-07-28T19:49:12.747Z,25.57
2022-07-28T19:51:44.188Z,25.11
2022-07-28T19:54:13.184Z,25.35
2022-07-28T19:56:42.246Z,25.28
2022-07-28T19:59:09.634Z,25.46
2022-07-28T20:01:36.544Z,25.24
2022-07-28T20:04:12.935Z,24.91
2022-07-28T20:06:39.772Z,25.41
2022-07-28T20:09:06.626Z,25.39
2022-07-28T20:11:33.773Z,24.48
2022-07-28T20:14:01.230Z,25.06
2022-07-28T20:16:28.223Z,25.33
2022-07-28T20:18:56.866Z,25.32
2022-07-28T20:21:24.878Z,25.30
2022-07-28T20:23:56.923Z,25.23
2022-07-28T20:26:26.664Z,25.29
2022-07-28T20:28:55.445Z,25.27
2022-07-28T20:31:22.279Z,25.24
2022-07-28T20:33:50.225Z,25.26
2022-07-28T20:36:16.980Z,25.19
2022-07-28T20:38:45.169Z,25.15
2022-07-28T20:41:12.325Z,25.11
2022-07-28T20:43:41.518Z,25.00
2022-07-28T20:46:08.450Z,25.04
2022-07-28T20:48:35.761Z,24.45
2022-07-28T20:51:02.533Z,24.87
2022-07-28T20:53:29.221Z,24.87
2022-07-28T20:55:56.056Z,24.85
2022-07-28T20:58:22.759Z,24.83
2022-07-28T21:00:50.847Z,24.73
2022-07-28T21:03:17.912Z,24.79
2022-07-28T21:05:44.617Z,24.70
2022-07-28T21:08:16.186Z,24.67
2022-07-28T21:10:44.228Z,24.62
2022-07-28T21:13:11.311Z,24.74
2022-07-28T21:15:38.119Z,24.79
2022-07-28T21:18:05.019Z,24.71
2022-07-28T21:20:31.854Z,24.94
2022-07-28T21:22:58.601Z,24.89
2022-07-28T21:25:25.301Z,24.83
2022-07-28T21:28:10.950Z,24.79
2022-07-28T21:30:38.063Z,24.92
2022-07-28T21:33:05.391Z,24.68
2022-07-28T21:35:32.161Z,24.84
2022-07-28T21:37:59.430Z,24.91
2022-07-28T21:40:26.323Z,24.96
2022-07-28T21:42:53.076Z,24.95
2022-07-28T21:45:19.955Z,25.05
2022-07-28T21:47:46.777Z,24.94
2022-07-28T21:50:14.058Z,24.76
2022-07-28T21:52:40.822Z,24.67
2022-07-28T21:55:09.347Z,24.70
2022-07-28T21:57:36.326Z,24.58
2022-07-28T22:00:06.612Z,24.60
2022-07-28T22:02:33.517Z,24.33
2022-07-28T22:05:01.016Z,24.31
2022-07-28T22:07:28.094Z,24.37
2022-07-28T22:09:54.853Z,24.22
2022-07-28T22:12:21.631Z,24.25
2022-07-28T22:14:48.328Z,24.11
2022-07-28T22:17:14.969Z,24.15
2022-07-28T22:19:41.786Z,24.08
2022-07-28T22:22:08.605Z,24.07
2022-07-28T22:24:35.332Z,24.11
2022-07-28T22:27:34.579Z,24.04
2022-07-28T22:30:02.835Z,24.04
2022-07-28T22:32:29.603Z,23.95
2022-07-28T22:34:58.146Z,23.92
2022-07-28T22:37:24.868Z,24.02
2022-07-28T22:39:51.728Z,23.91
2022-07-28T22:42:18.418Z,23.89
2022-07-28T22:45:06.406Z,23.66
2022-07-28T22:47:33.051Z,23.80
2022-07-28T22:49:59.702Z,23.73
2022-07-28T22:52:27.992Z,23.59
2022-07-28T22:54:55.150Z,23.67
2022-07-28T22:57:22.082Z,23.64
2022-07-28T22:59:51.068Z,23.68
2022-07-28T23:02:18.662Z,23.63
2022-07-28T23:04:51.135Z,23.62
2022-07-28T23:07:18.414Z,23.41
2022-07-28T23:09:45.128Z,23.53
2022-07-28T23:12:11.839Z,23.42
2022-07-28T23:14:38.582Z,23.42
2022-07-28T23:17:05.311Z,23.32
2022-07-28T23:19:31.991Z,23.39
2022-07-28T23:21:58.708Z,23.38
2022-07-28T23:24:25.481Z,23.41
2022-07-28T23:26:52.139Z,23.28
2022-07-28T23:29:18.790Z,23.00
2022-07-28T23:31:45.481Z,23.10
2022-07-28T23:34:12.219Z,23.05
2022-07-28T23:36:38.904Z,22.81
2022-07-28T23:39:05.554Z,22.74
2022-07-28T23:41:32.282Z,22.65
2022-07-28T23:43:59.214Z,22.68
2022-07-28T23:46:25.907Z,22.78
2022-07-28T23:48:52.754Z,22.78
2022-07-28T23:51:21.049Z,22.74
2022-07-28T23:53:49.888Z,22.54
2022-07-28T23:56:19.676Z,22.60
2022-07-28T23:58:46.285Z,22.56
